Time;durP1;ratioP1;P1;durP2;ratioP2;P2;SDS_P1;SDS_P2;PMS_P1;PMS_P2;Temp;Humidity;BMP_temperature;BMP_pressure;BME280_temperature;BME280_humidity;BME280_pressure;Samples;Min_cycle;Max_cycle;Signal;HPM_P1;HPM_P2
2024/02/03 00:00:48;;;;;;;6.55;3.70;;;22.80;99.90;;;;;;4936559;29;20035;-61
2024/02/03 00:03:14;;;;;;;5.70;4.20;;;22.80;99.90;;;;;;4936387;29;20056;-61
2024/02/03 00:05:40;;;;;;;5.57;4.35;;;22.80;99.90;;;;;;4936355;29;20158;-61
2024/02/03 00:08:06;;;;;;;5.40;3.70;;;22.80;99.90;;;;;;4936356;29;20110;-61
2024/02/03 00:10:33;;;;;;;6.53;3.70;;;22.70;99.90;;;;;;4934924;29;20030;-61
2024/02/03 00:12:58;;;;;;;5.85;4.00;;;22.80;99.90;;;;;;4936181;29;20525;-61
2024/02/03 00:15:27;;;;;;;5.50;3.85;;;22.70;99.90;;;;;;4919269;29;20110;-61
2024/02/03 00:17:53;;;;;;;5.53;3.53;;;22.70;99.90;;;;;;4936193;29;20027;-61
2024/02/03 00:20:19;;;;;;;5.60;3.92;;;22.70;99.90;;;;;;4936065;29;20164;-61
2024/02/03 00:22:51;;;;;;;4.83;3.73;;;22.70;99.90;;;;;;4936116;29;20114;-61
2024/02/03 00:25:20;;;;;;;6.15;3.65;;;22.70;99.90;;;;;;4934968;29;20168;-61
2024/02/03 00:27:47;;;;;;;6.45;4.10;;;22.70;99.90;;;;;;4934983;29;20400;-61
2024/02/03 00:30:13;;;;;;;5.60;3.53;;;22.70;99.90;;;;;;4934723;29;20365;-61
2024/02/03 00:32:39;;;;;;;6.22;4.15;;;22.60;99.90;;;;;;4936123;29;20437;-61
2024/02/03 00:35:05;;;;;;;6.80;3.83;;;22.70;99.90;;;;;;4936002;29;20095;-61
2024/02/03 00:37:31;;;;;;;6.03;3.70;;;22.60;99.90;;;;;;4935868;29;20059;-62
2024/02/03 00:39:57;;;;;;;5.05;3.67;;;22.60;99.90;;;;;;4934503;29;20059;-61
2024/02/03 00:42:24;;;;;;;7.13;4.60;;;22.60;99.90;;;;;;4934551;29;20034;-61
2024/02/03 00:44:49;;;;;;;5.63;3.85;;;22.60;99.90;;;;;;4936082;29;20759;-61
2024/02/03 00:47:15;;;;;;;6.95;4.13;;;22.60;99.90;;;;;;4935677;29;20075;-61
2024/02/03 00:49:44;;;;;;;6.90;3.83;;;22.50;99.90;;;;;;4935601;29;20038;-61
2024/02/03 00:52:10;;;;;;;3.95;3.40;;;22.50;99.90;;;;;;4935828;29;20027;-61
2024/02/03 00:54:36;;;;;;;5.70;3.88;;;22.50;99.90;;;;;;4935758;29;20365;-63
2024/02/03 00:57:01;;;;;;;6.07;4.13;;;22.50;99.90;;;;;;4935553;29;20103;-61
2024/02/03 00:59:27;;;;;;;6.93;3.88;;;22.50;99.90;;;;;;4935425;29;20476;-61
2024/02/03 01:01:53;;;;;;;6.82;4.15;;;22.50;99.90;;;;;;4935513;29;20023;-61
2024/02/03 01:04:19;;;;;;;5.88;4.20;;;22.50;99.90;;;;;;4935545;29;20380;-61
2024/02/03 01:06:45;;;;;;;4.82;3.38;;;22.50;99.90;;;;;;4935611;29;20023;-62
2024/02/03 01:09:11;;;;;;;6.68;4.00;;;22.50;99.90;;;;;;4934986;29;20032;-61
2024/02/03 01:11:36;;;;;;;5.53;3.80;;;22.40;99.90;;;;;;4935589;29;20229;-61
2024/02/03 01:14:02;;;;;;;7.43;3.60;;;22.50;99.90;;;;;;4934107;29;20074;-62
2024/02/03 01:16:28;;;;;;;6.60;3.38;;;22.40;99.90;;;;;;4935422;29;20039;-61
2024/02/03 01:18:54;;;;;;;6.28;3.53;;;22.50;99.90;;;;;;4934965;29;20047;-61
2024/02/03 01:21:22;;;;;;;4.25;3.40;;;22.40;99.90;;;;;;4935223;29;20055;-61
2024/02/03 01:23:48;;;;;;;4.38;3.25;;;22.40;99.90;;;;;;4935177;29;20020;-61
2024/02/03 01:26:15;;;;;;;5.45;3.50;;;22.40;99.90;;;;;;4935128;29;20030;-61
2024/02/03 01:28:41;;;;;;;5.38;3.28;;;22.40;99.90;;;;;;4935359;29;20028;-61
2024/02/03 01:31:08;;;;;;;6.72;3.72;;;22.40;99.90;;;;;;4934905;29;20043;-60
2024/02/03 01:33:34;;;;;;;4.22;2.92;;;22.40;99.90;;;;;;4935121;29;20024;-60
2024/02/03 01:36:00;;;;;;;5.47;3.58;;;22.40;99.90;;;;;;4935077;29;20091;-60
2024/02/03 01:38:25;;;;;;;5.57;3.28;;;22.30;99.90;;;;;;4934962;29;20040;-60
2024/02/03 01:40:52;;;;;;;5.07;3.35;;;22.30;99.90;;;;;;4935018;29;20361;-60
2024/02/03 01:43:18;;;;;;;5.88;3.58;;;22.30;99.90;;;;;;4933602;29;20055;-60
2024/02/03 01:45:43;;;;;;;5.50;3.72;;;22.30;99.90;;;;;;4980124;23;20440;-50
2024/02/03 01:48:13;;;;;;;5.90;3.00;;;22.30;99.90;;;;;;4973653;28;20046;-50
2024/02/03 01:50:41;;;;;;;5.28;3.63;;;22.20;99.90;;;;;;4973791;28;20031;-49
2024/02/03 01:53:09;;;;;;;5.35;3.30;;;22.20;99.90;;;;;;4973549;28;20053;-49
2024/02/03 01:55:35;;;;;;;;;;;22.20;99.90;;;;;;4973872;28;20037;-50
2024/02/03 01:58:02;;;;;;;4.72;3.42;;;22.20;99.90;;;;;;4973316;28;19906;-50
2024/02/03 02:00:30;;;;;;;4.10;3.10;;;22.20;99.90;;;;;;4973313;28;20094;-50
2024/02/03 02:02:56;;;;;;;5.07;3.33;;;22.20;99.90;;;;;;4973377;28;20102;-49
2024/02/03 02:05:24;;;;;;;5.47;3.50;;;22.20;99.90;;;;;;4973322;28;20109;-50
2024/02/03 02:07:49;;;;;;;4.82;3.25;;;22.20;99.90;;;;;;4973256;28;20062;-49
2024/02/03 02:10:16;;;;;;;4.97;2.78;;;22.20;99.90;;;;;;4973200;28;20054;-49
2024/02/03 02:12:42;;;;;;;5.45;3.53;;;22.10;99.90;;;;;;4973523;28;20027;-49
2024/02/03 02:15:09;;;;;;;3.83;3.08;;;22.10;99.90;;;;;;4973622;28;20023;-50
2024/02/03 02:17:36;;;;;;;5.40;3.13;;;22.10;99.90;;;;;;4972985;28;20034;-50
2024/02/03 02:20:10;;;;;;;6.72;3.50;;;22.10;99.90;;;;;;4973342;28;20039;-49
2024/02/03 02:22:36;;;;;;;3.80;2.80;;;22.10;99.90;;;;;;4976856;28;20062;-50
2024/02/03 02:25:03;;;;;;;4.15;3.17;;;22.10;99.90;;;;;;4976760;28;20073;-50
2024/02/03 02:27:30;;;;;;;6.47;3.47;;;22.10;99.90;;;;;;4976652;28;20026;-50
2024/02/03 02:29:56;;;;;;;5.75;3.60;;;22.10;99.90;;;;;;4976686;28;20038;-49
2024/02/03 02:32:22;;;;;;;6.40;3.00;;;22.10;99.90;;;;;;4959425;28;20027;-50
2024/02/03 02:34:47;;;;;;;6.07;3.28;;;22.00;99.90;;;;;;4976620;28;20483;-50
2024/02/03 02:37:13;;;;;;;6.82;2.65;;;22.00;99.90;;;;;;4976772;28;20031;-50
2024/02/03 02:39:39;;;;;;;4.32;3.15;;;22.00;99.90;;;;;;4976627;28;20069;-50
2024/02/03 02:42:06;;;;;;;5.93;3.10;;;22.00;99.90;;;;;;4976534;28;20364;-50
2024/02/03 02:44:32;;;;;;;6.25;3.90;;;22.00;99.90;;;;;;4980858;23;20052;-62
2024/02/03 02:46:58;;;;;;;5.00;3.13;;;22.00;99.90;;;;;;4957100;29;20038;-59
2024/02/03 02:49:24;;;;;;;4.35;3.10;;;22.00;99.90;;;;;;4956934;29;20375;-60
2024/02/03 02:51:50;;;;;;;5.90;3.72;;;22.00;99.90;;;;;;4956975;29;20066;-60
2024/02/03 02:54:15;;;;;;;3.72;3.00;;;22.00;99.90;;;;;;4957155;29;20036;-60
2024/02/03 02:56:41;;;;;;;5.40;3.65;;;21.90;99.90;;;;;;4957002;29;20030;-60
2024/02/03 02:59:07;;;;;;;5.03;3.55;;;21.90;99.90;;;;;;4956668;29;20039;-60
2024/02/03 03:01:33;;;;;;;6.28;3.60;;;22.00;99.90;;;;;;4956741;29;20023;-60
2024/02/03 03:03:59;;;;;;;4.57;3.40;;;21.90;99.90;;;;;;4956867;29;20034;-60
2024/02/03 03:06:24;;;;;;;6.15;3.60;;;21.90;99.90;;;;;;4956753;29;20035;-60
2024/02/03 03:08:50;;;;;;;3.88;3.15;;;21.90;99.90;;;;;;4956523;29;20435;-60
2024/02/03 03:11:16;;;;;;;6.50;4.28;;;21.90;99.90;;;;;;4956568;29;20085;-60
2024/02/03 03:13:42;;;;;;;5.03;3.42;;;21.90;99.90;;;;;;4956422;29;20019;-60
2024/02/03 03:16:11;;;;;;;4.10;3.38;;;21.90;99.90;;;;;;4939201;29;20395;-59
2024/02/03 03:18:39;;;;;;;5.10;3.17;;;21.90;99.90;;;;;;4956260;29;20535;-59
2024/02/03 03:21:06;;;;;;;3.35;3.05;;;21.90;99.90;;;;;;4956494;29;20038;-59
2024/02/03 03:23:33;;;;;;;6.15;3.30;;;21.90;99.90;;;;;;4956369;29;20023;-60
2024/02/03 03:25:59;;;;;;;5.35;2.88;;;21.90;99.90;;;;;;4956069;29;20035;-59
2024/02/03 03:28:26;;;;;;;5.43;3.75;;;21.90;99.90;;;;;;4956251;29;20023;-59
2024/02/03 03:30:52;;;;;;;5.13;3.53;;;21.90;99.90;;;;;;4956129;29;20035;-59
2024/02/03 03:33:18;;;;;;;5.57;3.58;;;21.90;99.90;;;;;;4955563;28;20019;-60
2024/02/03 03:35:44;;;;;;;5.43;3.47;;;21.80;99.90;;;;;;4956116;29;20042;-59
2024/02/03 03:38:11;;;;;;;4.60;3.15;;;21.80;99.90;;;;;;4955951;29;20154;-59
2024/02/03 03:40:37;;;;;;;4.00;3.00;;;21.90;99.90;;;;;;4956038;29;20483;-60
2024/02/03 03:43:06;;;;;;;5.13;3.13;;;21.80;99.90;;;;;;4956086;29;20033;-59
2024/02/03 03:45:32;;;;;;;5.60;3.28;;;21.80;99.90;;;;;;4967764;23;20047;-50
2024/02/03 03:47:58;;;;;;;4.30;3.38;;;21.80;99.90;;;;;;4956119;29;20038;-50
2024/02/03 03:50:24;;;;;;;3.92;3.13;;;21.80;99.90;;;;;;4956074;29;20031;-50
2024/02/03 03:52:50;;;;;;;4.07;3.15;;;21.80;99.90;;;;;;4955955;29;20357;-49
2024/02/03 03:55:16;;;;;;;4.30;3.22;;;21.80;99.90;;;;;;4955975;29;20033;-50
2024/02/03 03:57:42;;;;;;;6.10;3.38;;;21.80;99.90;;;;;;4955734;29;20031;-50
2024/02/03 04:00:10;;;;;;;3.95;3.35;;;21.80;99.90;;;;;;4955662;29;20046;-50
2024/02/03 04:02:36;;;;;;;;;;;21.80;99.90;;;;;;4939424;29;20051;-50
2024/02/03 04:05:02;;;;;;;5.32;3.53;;;21.80;99.90;;;;;;4955531;29;19914;-50
2024/02/03 04:07:28;;;;;;;4.53;3.28;;;21.80;99.90;;;;;;4938194;29;20027;-50
2024/02/03 04:09:54;;;;;;;3.97;3.13;;;21.70;99.90;;;;;;4955736;29;20107;-50
2024/02/03 04:12:19;;;;;;;4.40;3.67;;;21.80;99.90;;;;;;4938638;29;20452;-49
2024/02/03 04:14:48;;;;;;;5.88;3.33;;;21.70;99.90;;;;;;4955578;29;20055;-50
2024/02/03 04:17:15;;;;;;;6.75;3.78;;;21.70;99.90;;;;;;4938111;29;20433;-50
2024/02/03 04:19:41;;;;;;;5.35;3.80;;;21.70;99.90;;;;;;4955029;29;20480;-50
2024/02/03 04:22:17;;;;;;;4.05;3.30;;;21.70;99.90;;;;;;4955394;29;20027;-50
2024/02/03 04:24:42;;;;;;;6.03;3.42;;;21.70;99.90;;;;;;4955281;29;20499;-50
2024/02/03 04:27:08;;;;;;;5.13;3.33;;;21.70;99.90;;;;;;4955414;29;20055;-49
2024/02/03 04:29:34;;;;;;;5.10;3.67;;;21.70;99.90;;;;;;4955263;29;20102;-49
2024/02/03 04:32:00;;;;;;;4.57;3.47;;;21.70;99.90;;;;;;4955004;29;20023;-49
2024/02/03 04:34:25;;;;;;;3.47;3.10;;;21.70;99.90;;;;;;4955253;29;20389;-49
2024/02/03 04:36:51;;;;;;;4.55;3.22;;;21.60;99.90;;;;;;4955440;29;20027;-50
2024/02/03 04:39:17;;;;;;;4.03;3.42;;;21.70;99.90;;;;;;4955215;29;20069;-49
2024/02/03 04:41:43;;;;;;;5.88;3.17;;;21.70;99.90;;;;;;4937921;29;20095;-50
2024/02/03 04:44:09;;;;;;;5.03;3.22;;;21.60;99.90;;;;;;4955245;28;20062;-50
2024/02/03 04:46:35;;;;;;;4.38;3.15;;;21.60;99.90;;;;;;4954962;29;20027;-49
2024/02/03 04:49:01;;;;;;;7.20;3.30;;;21.60;99.90;;;;;;4954748;29;20560;-50
2024/02/03 04:51:29;;;;;;;7.47;3.30;;;21.60;99.90;;;;;;4955045;29;20041;-50
2024/02/03 04:53:55;;;;;;;4.97;3.45;;;21.60;99.90;;;;;;4954607;29;20024;-50
2024/02/03 04:56:20;;;;;;;7.43;3.42;;;21.60;99.90;;;;;;4937812;29;20038;-50
2024/02/03 04:58:46;;;;;;;5.35;3.05;;;21.60;99.90;;;;;;4937459;29;20085;-50
2024/02/03 05:01:12;;;;;;;5.15;3.10;;;21.60;99.90;;;;;;4955196;29;20027;-50
2024/02/03 05:03:38;;;;;;;3.22;2.90;;;21.60;99.90;;;;;;4953419;29;20475;-50
2024/02/03 05:06:05;;;;;;;4.75;2.85;;;21.60;99.90;;;;;;4954726;29;20015;-49
2024/02/03 05:08:31;;;;;;;;;;;21.60;99.90;;;;;;4937908;29;20498;-50
2024/02/03 05:10:58;;;;;;;3.38;2.88;;;21.60;99.90;;;;;;4954551;29;19914;-50
2024/02/03 05:13:25;;;;;;;4.97;3.63;;;21.60;99.90;;;;;;4954518;29;20027;-50
2024/02/03 05:15:51;;;;;;;3.88;2.97;;;21.60;99.90;;;;;;4954462;29;20397;-50
2024/02/03 05:18:17;;;;;;;4.13;3.10;;;21.60;99.90;;;;;;4954301;29;20102;-50
2024/02/03 05:20:43;;;;;;;6.45;3.58;;;21.60;99.90;;;;;;4954554;29;20114;-50
2024/02/03 05:23:09;;;;;;;4.03;3.03;;;21.60;99.90;;;;;;4954299;29;20023;-50
2024/02/03 05:25:34;;;;;;;6.82;3.40;;;21.60;99.90;;;;;;4954503;29;20031;-50
2024/02/03 05:28:00;;;;;;;4.35;3.05;;;21.50;99.90;;;;;;4954258;29;20034;-50
2024/02/03 05:30:27;;;;;;;5.22;3.03;;;21.60;99.90;;;;;;4954240;29;20050;-50
2024/02/03 05:32:52;;;;;;;5.57;3.47;;;21.60;99.90;;;;;;4954258;29;20038;-50
2024/02/03 05:35:18;;;;;;;5.07;3.55;;;21.50;99.90;;;;;;4954191;29;20376;-50
2024/02/03 05:37:44;;;;;;;5.97;3.58;;;21.60;99.90;;;;;;4954106;29;20027;-50
2024/02/03 05:40:10;;;;;;;4.13;3.08;;;21.50;99.90;;;;;;4953947;29;20044;-50
2024/02/03 05:42:36;;;;;;;3.13;2.80;;;21.50;99.90;;;;;;4954061;29;20155;-50
2024/02/03 05:45:02;;;;;;;5.97;3.85;;;21.50;99.90;;;;;;4953939;29;20138;-50
2024/02/03 05:47:28;;;;;;;3.30;2.90;;;21.50;99.90;;;;;;4936789;29;20387;-49
2024/02/03 05:49:54;;;;;;;5.72;3.28;;;21.50;99.90;;;;;;4954228;29;20464;-50
2024/02/03 05:52:20;;;;;;;4.50;3.30;;;21.50;99.90;;;;;;4954145;29;20476;-50
2024/02/03 05:54:47;;;;;;;4.65;2.90;;;21.50;99.90;;;;;;4936717;29;20879;-50
2024/02/03 05:57:12;;;;;;;6.55;2.95;;;21.50;99.90;;;;;;4958019;29;20074;-50
2024/02/03 05:59:41;;;;;;;3.97;3.55;;;21.50;99.90;;;;;;4957809;29;20373;-50
2024/02/03 06:02:07;;;;;;;4.68;2.80;;;21.50;99.90;;;;;;4956346;29;20420;-50
2024/02/03 06:04:33;;;;;;;4.05;3.13;;;21.50;99.90;;;;;;4956901;29;20086;-50
2024/02/03 06:06:59;;;;;;;4.85;3.00;;;21.50;99.90;;;;;;4956661;29;20034;-50
2024/02/03 06:09:25;;;;;;;6.78;3.45;;;21.50;99.90;;;;;;4957068;29;20027;-50
2024/02/03 06:11:51;;;;;;;6.65;3.42;;;21.50;99.90;;;;;;4957640;29;20019;-50
2024/02/03 06:14:17;;;;;;;5.25;3.10;;;21.50;99.90;;;;;;4957528;29;20039;-50
2024/02/03 06:16:43;;;;;;;3.75;2.78;;;21.40;99.90;;;;;;4957470;29;20027;-50
2024/02/03 06:19:09;;;;;;;5.15;2.92;;;21.40;99.90;;;;;;4957432;29;20376;-50
2024/02/03 06:21:35;;;;;;;4.07;3.10;;;21.40;99.90;;;;;;4957572;29;20024;-50
2024/02/03 06:24:02;;;;;;;5.07;2.92;;;21.40;99.90;;;;;;4940118;29;20439;-50
2024/02/03 06:26:30;;;;;;;5.07;3.17;;;21.40;99.90;;;;;;4957573;29;20027;-50
2024/02/03 06:28:57;;;;;;;4.25;2.88;;;21.40;99.90;;;;;;4957807;29;20110;-50
2024/02/03 06:31:23;;;;;;;4.53;3.17;;;21.40;99.90;;;;;;4957481;29;20372;-51
2024/02/03 06:33:48;;;;;;;5.97;3.30;;;21.40;99.90;;;;;;4957438;29;20028;-50
2024/02/03 06:36:15;;;;;;;4.18;2.72;;;21.40;99.90;;;;;;4957236;29;20028;-52
2024/02/03 06:38:40;;;;;;;4.30;2.90;;;21.40;99.90;;;;;;4955726;29;20036;-51
2024/02/03 06:41:10;;;;;;;9.20;3.30;;;21.40;99.90;;;;;;4957086;29;20114;-50
2024/02/03 06:43:40;;;;;;;3.47;2.75;;;21.40;99.90;;;;;;4957035;29;20110;-50
2024/02/03 06:46:06;;;;;;;5.72;2.72;;;21.40;99.90;;;;;;4956813;29;20126;-50
2024/02/03 06:48:32;;;;;;;4.95;3.00;;;21.40;99.90;;;;;;4956942;29;20023;-50
2024/02/03 06:50:58;;;;;;;6.20;2.70;;;21.40;99.90;;;;;;4957296;29;20103;-50
2024/02/03 06:53:24;;;;;;;6.25;3.22;;;21.40;99.90;;;;;;4939986;29;20480;-50
2024/02/03 06:55:50;;;;;;;5.82;3.17;;;21.30;99.90;;;;;;4956900;29;20027;-50
2024/02/03 06:58:16;;;;;;;4.80;3.53;;;21.40;99.90;;;;;;4956739;29;20436;-50
2024/02/03 07:00:42;;;;;;;3.78;3.00;;;21.40;99.90;;;;;;4956675;29;20090;-49
2024/02/03 07:03:08;;;;;;;3.83;3.20;;;21.40;99.90;;;;;;4956765;29;20055;-50
2024/02/03 07:05:33;;;;;;;4.82;2.88;;;21.30;99.90;;;;;;4955414;29;20036;-50
2024/02/03 07:08:01;;;;;;;6.95;3.13;;;21.30;99.90;;;;;;4955524;28;20023;-50
2024/02/03 07:10:27;;;;;;;5.63;3.03;;;21.30;99.90;;;;;;4956948;29;20082;-50
2024/02/03 07:12:54;;;;;;;3.50;2.83;;;21.30;99.90;;;;;;4956481;29;20031;-50
2024/02/03 07:15:20;;;;;;;3.33;2.70;;;21.30;99.90;;;;;;4956456;29;20039;-50
2024/02/03 07:17:46;;;;;;;4.95;3.47;;;21.30;99.90;;;;;;4956541;29;20040;-50
2024/02/03 07:20:12;;;;;;;5.22;3.10;;;21.30;99.90;;;;;;4955055;29;20085;-50
2024/02/03 07:22:38;;;;;;;3.83;3.13;;;21.30;99.90;;;;;;4956392;29;20031;-50
2024/02/03 07:25:04;;;;;;;2.90;2.58;;;21.30;99.90;;;;;;4956267;29;20031;-50
2024/02/03 07:27:30;;;;;;;5.10;3.30;;;21.30;99.90;;;;;;4923345;29;20023;-50
2024/02/03 07:29:56;;;;;;;5.70;3.45;;;21.30;99.90;;;;;;4956400;29;20365;-50
2024/02/03 07:32:22;;;;;;;3.70;3.20;;;21.30;99.90;;;;;;4956176;29;20026;-50
2024/02/03 07:34:48;;;;;;;7.20;3.33;;;21.30;99.90;;;;;;4956367;29;20558;-50
2024/02/03 07:37:14;;;;;;;4.95;3.25;;;21.20;99.90;;;;;;4956169;29;20059;-49
2024/02/03 07:39:40;;;;;;;5.80;3.30;;;21.30;99.90;;;;;;4956063;29;20042;-50
2024/02/03 07:42:06;;;;;;;4.72;2.95;;;21.20;99.90;;;;;;4956068;29;20031;-50
2024/02/03 07:44:32;;;;;;;5.32;3.10;;;21.20;99.90;;;;;;4955959;29;20059;-50
2024/02/03 07:47:01;;;;;;;4.35;3.08;;;21.30;99.90;;;;;;4956286;29;20429;-49
2024/02/03 07:49:27;;;;;;;5.30;3.13;;;21.20;99.90;;;;;;4956141;29;20152;-50
2024/02/03 07:51:53;;;;;;;4.72;3.55;;;21.20;99.90;;;;;;4955920;29;20044;-50
2024/02/03 07:54:18;;;;;;;5.93;3.70;;;21.20;99.90;;;;;;4955858;29;20023;-49
2024/02/03 07:56:44;;;;;;;4.40;3.08;;;21.20;99.90;;;;;;4955994;29;20063;-50
2024/02/03 07:59:10;;;;;;;3.95;3.22;;;21.20;99.90;;;;;;4955679;29;20031;-50
2024/02/03 08:01:36;;;;;;;4.60;3.30;;;21.20;99.90;;;;;;4955816;29;20094;-50
2024/02/03 08:04:02;;;;;;;4.57;3.55;;;21.20;99.90;;;;;;4955814;29;20531;-50
2024/02/03 08:06:27;;;;;;;4.90;3.17;;;21.20;99.90;;;;;;4955789;29;20031;-50
2024/02/03 08:08:53;;;;;;;5.15;3.00;;;21.20;99.90;;;;;;4955574;29;20388;-50
2024/02/03 08:11:19;;;;;;;4.30;2.90;;;21.20;99.90;;;;;;4955431;29;20027;-50
2024/02/03 08:13:45;;;;;;;5.03;3.47;;;21.20;99.90;;;;;;4955486;29;20423;-50
2024/02/03 08:16:10;;;;;;;3.97;3.28;;;21.20;99.90;;;;;;4955587;29;20023;-50
2024/02/03 08:18:36;;;;;;;5.25;3.50;;;21.20;99.90;;;;;;4955035;28;20079;-50
2024/02/03 08:21:02;;;;;;;5.25;3.90;;;21.20;99.90;;;;;;4955778;29;20384;-50
2024/02/03 08:23:28;;;;;;;4.13;2.70;;;21.20;99.90;;;;;;4938149;29;20031;-50
2024/02/03 08:25:55;;;;;;;5.50;3.35;;;21.10;99.90;;;;;;4955284;29;20050;-50
2024/02/03 08:28:21;;;;;;;6.35;3.55;;;21.20;99.90;;;;;;4955253;29;20027;-49
2024/02/03 08:30:47;;;;;;;5.30;3.92;;;21.20;99.90;;;;;;4955124;29;20085;-50
2024/02/03 08:33:13;;;;;;;6.35;4.13;;;21.20;99.90;;;;;;4955167;29;20031;-50
2024/02/03 08:35:38;;;;;;;4.10;3.20;;;21.20;99.90;;;;;;4955313;29;20028;-50
2024/02/03 08:38:04;;;;;;;5.45;3.20;;;21.20;99.90;;;;;;4937868;29;20122;-50
2024/02/03 08:40:30;;;;;;;5.72;3.58;;;21.20;99.90;;;;;;4955054;29;20114;-50
2024/02/03 08:42:56;;;;;;;5.30;3.55;;;21.20;99.90;;;;;;4955012;29;20090;-49
2024/02/03 08:45:22;;;;;;;5.90;3.20;;;21.20;99.90;;;;;;4954788;29;20118;-50
2024/02/03 08:47:48;;;;;;;5.90;3.70;;;21.20;99.90;;;;;;4954894;29;20050;-50
2024/02/03 08:50:14;;;;;;;7.00;3.40;;;21.20;99.90;;;;;;4953568;29;20035;-49
2024/02/03 08:52:40;;;;;;;7.88;3.50;;;21.20;99.90;;;;;;4954743;29;20103;-49
2024/02/03 08:55:06;;;;;;;4.70;3.85;;;21.20;99.90;;;;;;4954665;29;20114;-50
2024/02/03 08:57:32;;;;;;;7.05;3.50;;;21.20;99.90;;;;;;4953665;29;20027;-49
2024/02/03 08:59:58;;;;;;;4.15;3.40;;;21.20;99.90;;;;;;4953244;29;20035;-50
2024/02/03 09:02:23;;;;;;;5.32;3.70;;;21.20;99.90;;;;;;4954465;29;20027;-49
2024/02/03 09:04:49;;;;;;;7.65;3.88;;;21.20;99.90;;;;;;4937386;29;20023;-50
2024/02/03 09:07:15;;;;;;;5.53;3.40;;;21.30;99.90;;;;;;4937474;29;20039;-50
2024/02/03 09:09:42;;;;;;;7.05;3.83;;;21.30;99.90;;;;;;4954403;29;20066;-50
2024/02/03 09:12:08;;;;;;;6.93;3.47;;;21.30;99.90;;;;;;4954507;29;20024;-50
2024/02/03 09:14:34;;;;;;;8.20;3.80;;;21.30;99.90;;;;;;4954450;29;20038;-51
2024/02/03 09:17:00;;;;;;;5.35;3.33;;;21.30;99.90;;;;;;4954421;29;20031;-51
2024/02/03 09:19:26;;;;;;;6.70;3.80;;;21.30;99.90;;;;;;4936956;29;20431;-50
2024/02/03 09:21:52;;;;;;;4.82;3.72;;;21.30;99.90;;;;;;4954327;29;20089;-50
2024/02/03 09:24:18;;;;;;;4.18;3.50;;;21.30;99.90;;;;;;4954172;29;20027;-50
2024/02/03 09:26:44;;;;;;;6.18;4.25;;;21.30;99.90;;;;;;4954454;29;20033;-50
2024/02/03 09:29:11;;;;;;;4.75;3.70;;;21.30;99.90;;;;;;4954325;28;20053;-50
2024/02/03 09:31:37;;;;;;;6.00;4.35;;;21.30;99.90;;;;;;4953895;29;20023;-50
2024/02/03 09:34:04;;;;;;;6.05;3.80;;;21.40;99.90;;;;;;4937171;29;20123;-50
2024/02/03 09:36:30;;;;;;;;;;;21.40;99.90;;;;;;4954489;29;20034;-50
2024/02/03 09:38:56;;;;;;;4.60;3.65;;;21.40;99.90;;;;;;4936834;29;20294;-50
2024/02/03 09:41:23;;;;;;;6.25;3.70;;;21.40;99.90;;;;;;4954241;29;20031;-49
2024/02/03 09:43:49;;;;;;;5.05;3.90;;;21.40;99.90;;;;;;4953829;29;20027;-56
2024/02/03 09:46:15;;;;;;;5.35;3.50;;;21.40;99.90;;;;;;4954093;29;20059;-51
2024/02/03 09:48:41;;;;;;;6.43;3.92;;;21.40;99.90;;;;;;4954117;29;20034;-49
2024/02/03 09:51:07;;;;;;;6.05;4.10;;;21.40;99.90;;;;;;4954158;29;20055;-50
2024/02/03 09:53:33;;;;;;;7.65;3.90;;;21.50;99.90;;;;;;4954089;29;20020;-50
2024/02/03 09:55:59;;;;;;;7.10;3.67;;;21.50;99.90;;;;;;4953866;29;20488;-50
2024/02/03 09:58:25;;;;;;;5.57;3.83;;;21.50;99.90;;;;;;4953995;29;20042;-50
2024/02/03 10:00:54;;;;;;;6.30;3.67;;;21.50;99.90;;;;;;4954001;29;20035;-50
2024/02/03 10:03:20;;;;;;;4.45;3.38;;;21.40;99.90;;;;;;4953859;29;20023;-49
2024/02/03 10:05:52;;;;;;;5.45;3.47;;;21.50;99.90;;;;;;4936850;29;20059;-50
2024/02/03 10:08:18;;;;;;;5.53;4.03;;;21.50;99.90;;;;;;4953833;29;20042;-49
2024/02/03 10:10:44;;;;;;;6.22;4.00;;;21.50;99.90;;;;;;4954019;29;20020;-49
2024/02/03 10:13:11;;;;;;;4.65;3.80;;;21.50;99.90;;;;;;4953967;29;20097;-50
2024/02/03 10:15:38;;;;;;;4.95;3.70;;;21.50;99.90;;;;;;4954158;29;20032;-50
2024/02/03 10:18:05;;;;;;;5.57;4.13;;;21.50;99.90;;;;;;4953919;29;20395;-49
2024/02/03 10:20:31;;;;;;;6.10;4.40;;;21.60;99.90;;;;;;4953743;29;20138;-49
2024/02/03 10:22:57;;;;;;;7.15;4.63;;;21.60;99.90;;;;;;4953750;29;20515;-50
2024/02/03 10:25:29;;;;;;;4.63;3.78;;;21.70;99.90;;;;;;4953755;29;20096;-50
2024/02/03 10:28:05;;;;;;;6.45;4.50;;;21.70;99.90;;;;;;4953623;29;20023;-50
2024/02/03 10:30:37;;;;;;;5.88;4.10;;;21.70;99.90;;;;;;4953589;29;20334;-49
2024/02/03 10:33:05;;;;;;;5.50;3.78;;;21.70;99.90;;;;;;4953723;29;20031;-49
2024/02/03 10:35:32;;;;;;;;;;;21.80;99.90;;;;;;4953945;29;20031;-49
2024/02/03 10:37:58;;;;;;;7.82;3.50;;;21.80;99.90;;;;;;4953621;29;20000;-50
2024/02/03 10:40:25;;;;;;;7.18;4.07;;;21.90;99.90;;;;;;4953524;29;20046;-50
2024/02/03 10:42:55;;;;;;;6.32;4.07;;;22.00;99.90;;;;;;4957506;28;20364;-50
2024/02/03 10:45:28;;;;;;;7.88;4.25;;;22.00;99.90;;;;;;4956795;29;20384;-50
2024/02/03 10:47:57;;;;;;;5.72;3.78;;;22.00;99.90;;;;;;4957031;29;20379;-50
2024/02/03 10:50:43;;;;;;;6.78;3.92;;;22.10;99.90;;;;;;4956902;29;20031;-50
2024/02/03 10:53:15;;;;;;;7.25;3.95;;;22.10;99.90;;;;;;4957091;29;20023;-50
2024/02/03 10:55:54;;;;;;;7.05;4.43;;;22.10;99.90;;;;;;4955677;29;20114;-50
2024/02/03 10:58:27;;;;;;;6.80;4.03;;;22.20;99.90;;;;;;4956737;29;20421;-49
2024/02/03 11:00:53;;;;;;;7.72;4.63;;;22.20;99.90;;;;;;4956636;29;20031;-50
2024/02/03 11:03:22;;;;;;;5.82;4.07;;;22.20;99.90;;;;;;4956707;29;20494;-50
2024/02/03 11:05:55;;;;;;;10.10;4.38;;;22.30;99.90;;;;;;4956605;29;20494;-51
2024/02/03 11:08:22;;;;;;;7.38;4.00;;;22.30;99.90;;;;;;4956557;29;20058;-50
2024/02/03 11:10:52;;;;;;;7.57;4.25;;;22.40;99.90;;;;;;4939365;29;20023;-50
2024/02/03 11:13:22;;;;;;;5.90;4.15;;;22.40;99.90;;;;;;4956743;29;20036;-50
2024/02/03 11:15:55;;;;;;;5.47;3.90;;;22.40;99.90;;;;;;4955466;29;20061;-50
2024/02/03 11:18:21;;;;;;;5.78;4.28;;;22.50;99.90;;;;;;4956486;29;20484;-50
2024/02/03 11:20:47;;;;;;;5.53;4.05;;;22.50;99.90;;;;;;4956193;29;20095;-50
2024/02/03 11:23:14;;;;;;;5.65;4.28;;;22.50;99.90;;;;;;4956420;29;20066;-50
2024/02/03 11:25:47;;;;;;;6.57;4.47;;;22.60;99.90;;;;;;4956373;29;20491;-50
2024/02/03 11:28:13;;;;;;;4.35;3.55;;;22.60;99.90;;;;;;4956462;29;20023;-50
2024/02/03 11:30:39;;;;;;;5.28;4.03;;;22.60;99.90;;;;;;4955204;29;20047;-50
2024/02/03 11:33:06;;;;;;;6.30;3.97;;;22.70;99.90;;;;;;4939034;29;20483;-50
2024/02/03 11:35:32;;;;;;;7.28;4.53;;;22.70;99.90;;;;;;4956142;29;20037;-49
2024/02/03 11:38:06;;;;;;;6.95;4.32;;;22.70;99.90;;;;;;4956146;29;20023;-50
2024/02/03 11:40:31;;;;;;;7.25;3.72;;;22.70;99.90;;;;;;4956068;29;20472;-50
2024/02/03 11:42:57;;;;;;;4.35;3.78;;;22.80;99.90;;;;;;4956022;29;20090;-50
2024/02/03 11:45:28;;;;;;;8.57;4.15;;;22.80;99.90;;;;;;4955845;29;20047;-50
2024/02/03 11:47:54;;;;;;;7.43;4.10;;;22.80;99.90;;;;;;4939269;29;20028;-50
2024/02/03 11:50:20;;;;;;;5.78;4.15;;;22.80;99.90;;;;;;4955808;29;20035;-50
2024/02/03 11:52:46;;;;;;;6.68;3.47;;;22.90;99.90;;;;;;4955207;28;20034;-50
2024/02/03 11:55:12;;;;;;;7.88;3.90;;;22.90;99.90;;;;;;4955956;29;20028;-50
2024/02/03 11:57:38;;;;;;;6.28;3.97;;;22.90;99.90;;;;;;4955715;29;20027;-50
2024/02/03 12:00:05;;;;;;;4.88;3.70;;;22.90;99.90;;;;;;4955554;29;20524;-50
2024/02/03 12:02:35;;;;;;;7.38;4.40;;;23.00;99.90;;;;;;4955551;29;20456;-50
2024/02/03 12:05:01;;;;;;;4.90;3.60;;;23.00;99.90;;;;;;4955599;29;20032;-50
2024/02/03 12:07:28;;;;;;;7.78;4.40;;;23.00;99.90;;;;;;4955454;29;20038;-50
2024/02/03 12:09:54;;;;;;;11.30;3.97;;;23.00;99.90;;;;;;4955508;29;20049;-50
2024/02/03 12:12:23;;;;;;;7.70;3.95;;;23.10;99.90;;;;;;4955432;29;20261;-50
2024/02/03 12:14:49;;;;;;;7.20;4.22;;;23.10;99.90;;;;;;4955238;29;20035;-49
2024/02/03 12:17:15;;;;;;;8.32;3.95;;;23.20;99.90;;;;;;4955498;29;20034;-50
2024/02/03 12:19:40;;;;;;;7.78;4.38;;;23.20;99.90;;;;;;4955343;29;20130;-50
2024/02/03 12:22:06;;;;;;;8.85;4.40;;;23.20;99.90;;;;;;4953902;29;20126;-50
2024/02/03 12:24:32;;;;;;;8.15;4.53;;;23.20;99.90;;;;;;4955203;29;20475;-50
2024/02/03 12:26:59;;;;;;;6.47;3.75;;;23.20;99.90;;;;;;4954920;29;20027;-49
2024/02/03 12:29:25;;;;;;;26.75;5.50;;;23.30;99.90;;;;;;4955224;29;20039;-50
2024/02/03 12:31:51;;;;;;;6.90;3.83;;;23.30;99.90;;;;;;4935756;29;20031;-50
2024/02/03 12:34:17;;;;;;;9.02;3.97;;;23.30;99.90;;;;;;4943382;29;20028;-50
2024/02/03 12:36:43;;;;;;;6.55;3.47;;;23.30;99.90;;;;;;4948992;29;20349;-50
2024/02/03 12:39:12;;;;;;;10.60;3.72;;;23.40;99.90;;;;;;4937043;29;20404;-50
2024/02/03 12:41:38;;;;;;;5.10;3.28;;;23.40;99.90;;;;;;4953915;29;20597;-51
2024/02/03 12:44:04;;;;;;;8.00;3.80;;;23.40;99.90;;;;;;4936819;29;20031;-50